createdAt,value
2018-10-18T00:00:06.103Z,72.90
2018-10-18T00:02:35.286Z,73.30
2018-10-18T00:05:05.203Z,72.70
2018-10-18T00:07:34.561Z,72.30
2018-10-18T00:10:03.894Z,75.70
2018-10-18T00:12:33.206Z,75.80
2018-10-18T00:15:02.441Z,75.90
2018-10-18T00:17:39.067Z,75.30
2018-10-18T00:20:08.349Z,75.20
2018-10-18T00:22:37.572Z,73.10
2018-10-18T00:25:07.138Z,71.40
2018-10-18T00:27:48.829Z,73.70
2018-10-18T00:30:24.884Z,77.00
2018-10-18T00:32:54.072Z,79.60
2018-10-18T00:35:31.705Z,79.30
2018-10-18T00:38:01.164Z,77.30
2018-10-18T00:40:30.266Z,75.20
2018-10-18T00:42:59.479Z,75.80
2018-10-18T00:45:28.706Z,76.00
2018-10-18T00:47:58.194Z,77.30
2018-10-18T00:50:27.632Z,79.60
2018-10-18T00:52:56.898Z,79.00
2018-10-18T00:55:26.502Z,80.30
2018-10-18T00:57:55.716Z,80.00
2018-10-18T01:00:25.476Z,78.10
2018-10-18T01:02:54.680Z,79.00
2018-10-18T01:05:23.922Z,78.50
2018-10-18T01:07:53.401Z,80.00
2018-10-18T01:10:22.766Z,82.80
2018-10-18T01:12:52.184Z,81.60
2018-10-18T01:15:21.401Z,80.70
2018-10-18T01:17:51.767Z,80.60
2018-10-18T01:20:20.925Z,81.50
2018-10-18T01:22:50.131Z,81.90
2018-10-18T01:25:19.347Z,84.30
2018-10-18T01:27:48.867Z,84.20
2018-10-18T01:30:18.237Z,83.30
2018-10-18T01:32:47.530Z,83.00
2018-10-18T01:35:16.711Z,83.70
2018-10-18T01:37:45.960Z,84.90
2018-10-18T01:40:15.211Z,83.70
2018-10-18T01:42:44.385Z,81.90
2018-10-18T01:45:13.584Z,80.70
2018-10-18T01:47:42.951Z,82.40
2018-10-18T01:50:12.293Z,83.50
2018-10-18T01:52:41.453Z,83.20
2018-10-18T01:55:10.693Z,84.90
2018-10-18T01:57:39.927Z,84.40
2018-10-18T02:00:09.580Z,84.30
2018-10-18T02:02:38.922Z,83.10
2018-10-18T02:05:08.177Z,82.10
2018-10-18T02:07:38.600Z,83.60
2018-10-18T02:10:07.953Z,84.90
2018-10-18T02:12:37.147Z,83.50
2018-10-18T02:15:08.698Z,85.20
2018-10-18T02:17:38.089Z,85.80
2018-10-18T02:20:08.194Z,77.50
2018-10-18T02:22:37.363Z,75.90
2018-10-18T02:25:06.832Z,75.20
2018-10-18T02:27:37.151Z,76.60
2018-10-18T02:30:06.666Z,76.50
2018-10-18T02:32:35.838Z,75.40
2018-10-18T02:35:05.636Z,77.10
2018-10-18T02:37:34.923Z,77.70
2018-10-18T02:40:04.216Z,78.30
2018-10-18T02:42:33.449Z,74.10
2018-10-18T02:45:03.240Z,74.20
2018-10-18T02:47:32.505Z,73.10
2018-10-18T02:50:02.249Z,73.90
2018-10-18T02:52:31.697Z,76.20
2018-10-18T02:55:00.873Z,78.60
2018-10-18T02:57:30.803Z,78.90
2018-10-18T02:59:59.968Z,81.30
2018-10-18T03:02:29.400Z,80.60
2018-10-18T03:04:58.629Z,81.10
2018-10-18T03:07:27.925Z,83.00
2018-10-18T03:09:57.097Z,82.70
2018-10-18T03:12:26.271Z,83.90
2018-10-18T03:14:55.453Z,85.40
2018-10-18T03:17:24.876Z,80.50
2018-10-18T03:19:54.270Z,78.30
2018-10-18T03:22:23.471Z,77.80
2018-10-18T03:24:52.663Z,79.30
2018-10-18T03:27:21.924Z,80.80
2018-10-18T03:29:51.144Z,80.90
2018-10-18T03:32:20.364Z,80.20
2018-10-18T03:34:49.537Z,79.00
2018-10-18T03:37:18.982Z,77.60
2018-10-18T03:39:48.174Z,77.60
2018-10-18T03:42:17.563Z,79.90
2018-10-18T03:44:46.651Z,81.60
2018-10-18T03:47:17.855Z,84.80
2018-10-18T03:49:47.061Z,85.80
2018-10-18T03:52:16.277Z,85.30
2018-10-18T03:54:45.465Z,86.90
2018-10-18T03:57:14.743Z,87.20
2018-10-18T03:59:44.049Z,84.80
2018-10-18T04:02:14.617Z,83.10
2018-10-18T04:04:43.794Z,80.60
2018-10-18T04:07:13.187Z,83.10
2018-10-18T04:09:42.360Z,84.20
2018-10-18T04:12:11.718Z,83.70
2018-10-18T04:14:40.864Z,84.30
2018-10-18T04:17:10.976Z,84.40
2018-10-18T04:19:40.154Z,85.20
2018-10-18T04:22:09.354Z,86.60
2018-10-18T04:24:38.649Z,88.10
2018-10-18T04:27:08.024Z,87.70
2018-10-18T04:29:37.307Z,88.10
2018-10-18T04:32:06.706Z,88.50
2018-10-18T04:34:36.336Z,87.10
2018-10-18T04:37:05.998Z,85.60
2018-10-18T04:39:36.057Z,82.40
2018-10-18T04:42:05.512Z,82.90
2018-10-18T04:44:35.735Z,81.90
2018-10-18T04:47:06.012Z,81.60
2018-10-18T04:49:36.163Z,83.80
2018-10-18T04:52:05.605Z,80.20
2018-10-18T04:54:35.244Z,78.60
2018-10-18T04:57:04.539Z,80.80
2018-10-18T04:59:33.778Z,82.80
2018-10-18T05:02:03.038Z,83.50
2018-10-18T05:04:32.252Z,83.30
2018-10-18T05:07:01.587Z,83.70
2018-10-18T05:09:30.715Z,83.90
2018-10-18T05:11:59.910Z,82.10
2018-10-18T05:14:29.167Z,79.80
2018-10-18T05:16:58.530Z,79.70
2018-10-18T05:19:29.329Z,80.80
2018-10-18T05:22:00.507Z,82.30
2018-10-18T05:24:31.222Z,84.10
2018-10-18T05:27:01.572Z,84.80
2018-10-18T05:29:31.532Z,83.90
2018-10-18T05:32:02.120Z,81.70
2018-10-18T05:34:31.318Z,81.80
2018-10-18T05:37:00.887Z,82.20
2018-10-18T05:39:30.020Z,83.90
2018-10-18T05:41:59.254Z,83.40
2018-10-18T05:44:28.480Z,85.00
2018-10-18T05:46:57.774Z,86.80
2018-10-18T05:49:26.955Z,85.00
2018-10-18T05:51:56.146Z,84.00
2018-10-18T05:54:25.313Z,85.10
2018-10-18T05:56:54.706Z,85.80
2018-10-18T05:59:23.893Z,86.60
2018-10-18T06:01:53.058Z,87.30
2018-10-18T06:04:22.236Z,86.70
2018-10-18T06:06:51.513Z,82.60
2018-10-18T06:09:27.823Z,82.60
2018-10-18T06:11:57.013Z,82.60
2018-10-18T06:14:26.288Z,83.20
2018-10-18T06:16:55.954Z,82.70
2018-10-18T06:19:25.203Z,83.00
2018-10-18T06:21:54.461Z,82.70
2018-10-18T06:24:23.649Z,76.70
2018-10-18T06:26:53.916Z,77.10
2018-10-18T06:29:23.156Z,79.20
2018-10-18T06:31:52.338Z,80.30
2018-10-18T06:34:21.782Z,80.40
2018-10-18T06:36:51.114Z,81.70
2018-10-18T06:39:20.405Z,82.40
2018-10-18T06:41:49.804Z,80.50
2018-10-18T06:44:18.999Z,79.90
2018-10-18T06:46:48.383Z,80.30
2018-10-18T06:49:17.705Z,78.40
2018-10-18T06:51:46.788Z,75.90
2018-10-18T06:54:15.997Z,75.00
2018-10-18T06:56:45.173Z,76.80
2018-10-18T06:59:14.361Z,76.30
2018-10-18T07:01:43.555Z,75.30
2018-10-18T07:04:12.770Z,72.10
2018-10-18T07:06:42.258Z,70.70
2018-10-18T07:09:11.871Z,71.80
2018-10-18T07:11:41.779Z,71.10
2018-10-18T07:14:10.975Z,69.80
2018-10-18T07:16:40.177Z,70.40
2018-10-18T07:19:09.523Z,70.50
2018-10-18T07:21:38.755Z,71.90
2018-10-18T07:24:07.987Z,72.50
2018-10-18T07:26:37.152Z,71.40
2018-10-18T07:29:06.360Z,71.00
2018-10-18T07:31:35.565Z,71.80
2018-10-18T07:34:05.913Z,70.90
2018-10-18T07:36:35.141Z,70.50
2018-10-18T07:39:06.700Z,69.80
2018-10-18T07:41:35.898Z,70.90
2018-10-18T07:44:05.268Z,72.80
2018-10-18T07:46:34.504Z,72.40
2018-10-18T07:49:03.755Z,73.30
2018-10-18T07:51:32.910Z,72.00
2018-10-18T07:54:02.201Z,71.60
2018-10-18T07:56:31.967Z,68.90
2018-10-18T07:59:01.431Z,68.40
2018-10-18T08:01:30.674Z,64.70
2018-10-18T08:03:59.882Z,65.20
2018-10-18T08:06:29.110Z,62.00
2018-10-18T08:08:58.345Z,58.40
2018-10-18T08:11:27.536Z,57.90
2018-10-18T08:13:56.776Z,57.50
2018-10-18T08:16:26.420Z,57.80
2018-10-18T08:18:55.674Z,59.40
2018-10-18T08:21:24.847Z,60.20
2018-10-18T08:23:54.062Z,60.30
2018-10-18T08:26:23.555Z,60.20
2018-10-18T08:28:52.765Z,59.50
2018-10-18T08:31:22.158Z,59.30
2018-10-18T08:33:51.161Z,57.80
2018-10-18T08:36:21.744Z,58.10
2018-10-18T08:38:51.611Z,57.70
2018-10-18T08:41:20.997Z,56.10
2018-10-18T08:43:50.237Z,56.20
2018-10-18T08:46:19.410Z,56.30
2018-10-18T08:48:48.608Z,55.60
2018-10-18T08:51:17.802Z,55.60
2018-10-18T08:53:47.717Z,54.50
2018-10-18T08:56:17.663Z,52.80
2018-10-18T08:58:47.901Z,52.90
2018-10-18T09:01:17.220Z,52.20
2018-10-18T09:03:46.617Z,51.80
2018-10-18T09:06:15.832Z,49.90
2018-10-18T09:08:45.579Z,48.50
2018-10-18T09:11:14.786Z,48.20
2018-10-18T09:13:44.153Z,47.80
2018-10-18T09:16:13.455Z,47.00
2018-10-18T09:18:42.693Z,46.10
2018-10-18T09:21:11.867Z,46.50
2018-10-18T09:23:41.086Z,45.90
2018-10-18T09:26:10.339Z,44.70
2018-10-18T09:28:39.717Z,44.70
2018-10-18T09:31:08.980Z,43.00
2018-10-18T09:33:38.101Z,43.10
2018-10-18T09:36:07.273Z,42.50
2018-10-18T09:38:37.435Z,41.30
2018-10-18T09:41:06.732Z,39.90
2018-10-18T09:43:35.958Z,39.90
2018-10-18T09:46:05.612Z,40.50
2018-10-18T09:48:35.076Z,41.20
2018-10-18T09:52:01.533Z,39.60
2018-10-18T09:54:30.743Z,38.80
2018-10-18T09:57:00.155Z,39.70
2018-10-18T09:59:29.423Z,38.00
2018-10-18T10:02:03.823Z,37.30
2018-10-18T10:04:33.135Z,37.40
2018-10-18T10:07:02.501Z,36.70
2018-10-18T10:09:31.640Z,34.30
2018-10-18T10:12:00.835Z,34.80
2018-10-18T10:14:30.036Z,34.00
2018-10-18T10:17:00.280Z,34.60
2018-10-18T10:19:29.474Z,34.50
2018-10-18T10:21:58.646Z,35.10
2018-10-18T10:24:27.863Z,34.10
2018-10-18T10:26:57.103Z,33.50
2018-10-18T10:29:26.408Z,32.30
2018-10-18T10:31:56.002Z,33.30
2018-10-18T10:34:25.246Z,33.70
2018-10-18T10:36:54.557Z,32.40
2018-10-18T10:39:23.818Z,32.70
2018-10-18T10:41:53.488Z,33.00
2018-10-18T10:44:22.712Z,32.00
2018-10-18T10:46:52.230Z,31.90
2018-10-18T10:49:21.579Z,31.10
2018-10-18T10:51:51.501Z,29.30
2018-10-18T10:54:20.766Z,29.50
2018-10-18T10:56:53.181Z,29.90
2018-10-18T10:59:22.493Z,29.60
2018-10-18T11:01:52.549Z,29.10
2018-10-18T11:04:22.067Z,29.50
2018-10-18T11:06:51.482Z,29.40
2018-10-18T11:09:21.323Z,29.20
2018-10-18T11:11:50.818Z,29.50
2018-10-18T11:14:20.431Z,28.60
2018-10-18T11:16:50.856Z,27.80
2018-10-18T11:19:20.199Z,27.90
2018-10-18T11:21:49.864Z,26.50
2018-10-18T11:24:19.219Z,25.90
2018-10-18T11:26:49.298Z,25.70
2018-10-18T11:29:18.630Z,25.80
2018-10-18T11:31:48.190Z,26.10
2018-10-18T11:34:17.551Z,26.60
2018-10-18T11:36:47.011Z,26.50
2018-10-18T11:39:17.108Z,26.30
2018-10-18T11:41:46.435Z,27.40
2018-10-18T11:44:15.814Z,25.90
2018-10-18T11:46:46.717Z,26.10
2018-10-18T11:49:15.980Z,25.40
2018-10-18T11:51:46.496Z,24.90
2018-10-18T11:54:15.844Z,24.40
2018-10-18T11:56:46.298Z,24.10
2018-10-18T11:59:15.843Z,23.20
2018-10-18T12:01:45.111Z,23.80
2018-10-18T12:04:14.488Z,22.90
2018-10-18T12:06:44.895Z,22.60
2018-10-18T12:09:15.432Z,23.60
2018-10-18T12:11:44.868Z,23.30
2018-10-18T12:14:15.003Z,23.20
2018-10-18T12:16:53.213Z,22.80
2018-10-18T12:19:33.310Z,24.00
2018-10-18T12:24:47.207Z,23.00
2018-10-18T12:27:16.578Z,23.00
2018-10-18T12:29:45.786Z,21.70
2018-10-18T12:32:16.882Z,21.50
2018-10-18T12:34:46.046Z,21.30
2018-10-18T12:37:15.691Z,20.90
2018-10-18T12:39:45.092Z,21.00
2018-10-18T12:42:14.254Z,21.70
2018-10-18T12:44:43.457Z,21.20
2018-10-18T12:47:19.085Z,21.10
2018-10-18T12:49:48.314Z,21.10
2018-10-18T12:52:17.536Z,20.40
2018-10-18T12:54:46.800Z,21.00
2018-10-18T12:57:16.149Z,21.20
2018-10-18T12:59:45.375Z,21.10
2018-10-18T13:02:17.346Z,21.20
2018-10-18T13:04:49.404Z,21.10
2018-10-18T13:07:19.517Z,19.60
2018-10-18T13:09:48.742Z,20.40
2018-10-18T13:12:21.367Z,20.10
2018-10-18T13:14:50.503Z,19.40
2018-10-18T13:17:21.601Z,19.10
2018-10-18T13:19:51.203Z,18.60
2018-10-18T13:22:20.416Z,18.70
2018-10-18T13:24:50.101Z,19.80
2018-10-18T13:27:24.245Z,19.60
2018-10-18T13:29:53.502Z,19.20
2018-10-18T13:32:26.787Z,19.30
2018-10-18T13:34:56.071Z,18.90
2018-10-18T13:40:23.757Z,18.20
2018-10-18T13:42:52.991Z,16.80
2018-10-18T13:45:25.993Z,16.60
2018-10-18T13:47:55.452Z,14.30
2018-10-18T13:50:26.521Z,14.10
2018-10-18T13:52:56.203Z,12.30
2018-10-18T13:55:27.423Z,11.90
2018-10-18T13:57:57.428Z,11.20
2018-10-18T14:00:30.640Z,10.60
2018-10-18T14:02:59.912Z,10.30
2018-10-18T14:05:30.600Z,10.20
2018-10-18T14:08:01.513Z,10.70
2018-10-18T14:10:34.292Z,11.60
2018-10-18T14:13:03.527Z,11.10
2018-10-18T14:15:35.249Z,10.00
2018-10-18T14:18:04.878Z,9.20
2018-10-18T14:20:36.383Z,9.00
2018-10-18T14:23:06.525Z,9.30
2018-10-18T14:25:38.169Z,9.00
2018-10-18T14:30:39.488Z,7.80
2018-10-18T14:33:08.907Z,7.70
2018-10-18T14:35:40.500Z,8.80
2018-10-18T14:38:13.003Z,8.60
2018-10-18T14:40:44.094Z,9.30
2018-10-18T14:43:14.102Z,9.20
2018-10-18T14:45:44.480Z,9.60
2018-10-18T14:48:14.261Z,10.50
2018-10-18T14:50:45.797Z,11.50
2018-10-18T14:53:15.983Z,12.50
2018-10-18T14:55:45.922Z,12.30
2018-10-18T14:58:16.490Z,13.70
2018-10-18T15:00:48.254Z,13.30
2018-10-18T15:03:17.758Z,13.90
2018-10-18T15:05:47.489Z,14.50
2018-10-18T15:08:17.195Z,14.60
2018-10-18T15:10:48.527Z,15.20
2018-10-18T15:13:19.292Z,16.20
2018-10-18T15:15:51.965Z,17.50
2018-10-18T15:18:23.880Z,17.90
2018-10-18T15:20:53.441Z,17.90
2018-10-18T15:23:25.679Z,17.70
2018-10-18T15:25:56.149Z,17.90
2018-10-18T15:28:29.039Z,18.20
2018-10-18T15:30:58.842Z,18.70
2018-10-18T15:33:29.383Z,18.90
2018-10-18T15:35:59.006Z,19.70
2018-10-18T15:38:29.181Z,20.70
2018-10-18T15:40:58.331Z,20.00
2018-10-18T15:43:28.451Z,20.20
2018-10-18T15:45:58.501Z,20.60
2018-10-18T15:48:27.822Z,20.60
2018-10-18T15:50:58.139Z,21.00
2018-10-18T15:53:27.426Z,21.60
2018-10-18T15:55:57.035Z,21.60
2018-10-18T15:58:27.252Z,22.00
2018-10-18T16:00:56.971Z,22.20
2018-10-18T16:03:27.667Z,23.00
2018-10-18T16:05:57.184Z,22.40
2018-10-18T16:08:28.072Z,23.10
2018-10-18T16:10:57.442Z,23.60
2018-10-18T16:13:27.124Z,23.60
2018-10-18T16:16:00.018Z,24.00
2018-10-18T16:18:31.503Z,25.00
2018-10-18T16:21:00.906Z,24.80
2018-10-18T16:23:31.167Z,25.80
2018-10-18T16:26:02.391Z,25.90
2018-10-18T16:28:33.070Z,25.80
2018-10-18T16:31:02.526Z,26.30
2018-10-18T16:33:32.153Z,26.90
2018-10-18T16:36:05.649Z,27.10
2018-10-18T16:38:35.318Z,27.00
2018-10-18T16:41:06.313Z,27.70
2018-10-18T16:43:36.101Z,28.00
2018-10-18T16:46:07.648Z,28.10
2018-10-18T16:48:39.987Z,29.50
2018-10-18T16:51:09.370Z,28.60
2018-10-18T16:53:38.591Z,29.20
2018-10-18T16:56:08.912Z,29.60
2018-10-18T16:58:38.383Z,29.70
2018-10-18T17:01:08.679Z,29.90
2018-10-18T17:03:38.491Z,30.70
2018-10-18T17:06:10.382Z,31.40
2018-10-18T17:08:39.657Z,31.90
2018-10-18T17:11:09.077Z,31.90
2018-10-18T17:13:39.438Z,32.20
2018-10-18T17:16:10.723Z,33.20
2018-10-18T17:18:40.116Z,33.00
2018-10-18T17:21:09.358Z,33.90
2018-10-18T17:23:38.631Z,34.70
2018-10-18T17:26:12.363Z,35.60
2018-10-18T17:28:42.715Z,35.50
2018-10-18T17:31:12.229Z,34.90
2018-10-18T17:33:41.761Z,35.20
2018-10-18T17:36:12.243Z,35.50
2018-10-18T17:40:11.714Z,35.20
2018-10-18T17:42:41.528Z,35.40
2018-10-18T17:45:15.727Z,35.00
2018-10-18T17:47:47.840Z,35.10
2018-10-18T17:50:20.284Z,35.10
2018-10-18T17:52:50.054Z,35.20
2018-10-18T17:55:19.340Z,35.40
2018-10-18T17:57:50.601Z,35.90
2018-10-18T18:00:23.558Z,35.40
2018-10-18T18:02:53.245Z,35.60
2018-10-18T18:05:22.784Z,35.70
2018-10-18T18:07:52.495Z,35.90
2018-10-18T18:10:27.310Z,36.10
2018-10-18T18:12:58.022Z,36.70
2018-10-18T18:15:29.004Z,36.70
2018-10-18T18:18:01.020Z,36.70
2018-10-18T18:20:31.571Z,37.30
2018-10-18T18:23:01.607Z,37.50
2018-10-18T18:25:31.713Z,37.60
2018-10-18T18:28:02.189Z,37.20
2018-10-18T18:30:33.145Z,37.40
2018-10-18T18:33:02.449Z,38.10
2018-10-18T18:35:32.423Z,37.90
2018-10-18T18:38:02.915Z,38.20
2018-10-18T18:40:33.074Z,38.40
2018-10-18T18:43:02.878Z,38.40
2018-10-18T18:45:37.391Z,39.50
2018-10-18T18:48:06.913Z,40.30
2018-10-18T18:50:36.183Z,40.70
2018-10-18T18:53:06.773Z,41.50
2018-10-18T18:55:36.329Z,41.80
2018-10-18T18:58:05.878Z,42.30
2018-10-18T19:00:35.713Z,43.00
2018-10-18T19:03:05.796Z,42.90
2018-10-18T19:05:35.160Z,44.00
2018-10-18T19:08:04.484Z,42.70
2018-10-18T19:10:33.812Z,42.10
2018-10-18T19:13:35.249Z,42.50
2018-10-18T19:16:04.522Z,43.20
2018-10-18T19:18:35.636Z,46.40
2018-10-18T19:21:05.160Z,48.30
2018-10-18T19:23:34.450Z,51.20
2018-10-18T19:26:05.077Z,53.70
2018-10-18T19:28:34.720Z,55.40
2018-10-18T19:31:07.039Z,57.80
2018-10-18T19:33:36.397Z,59.10
2018-10-18T19:36:06.866Z,59.50
2018-10-18T19:38:36.467Z,60.40
2018-10-18T19:41:05.745Z,59.90
2018-10-18T19:43:35.203Z,60.90
2018-10-18T19:46:05.903Z,61.60
2018-10-18T19:48:39.354Z,59.20
2018-10-18T19:51:08.857Z,56.80
2018-10-18T19:53:38.379Z,58.50
2018-10-18T19:56:07.967Z,60.30
2018-10-18T19:58:37.451Z,63.40
2018-10-18T20:01:07.050Z,63.80
2018-10-18T20:03:36.403Z,65.60
2018-10-18T20:06:06.458Z,63.90
2018-10-18T20:08:37.842Z,63.90
2018-10-18T20:11:08.262Z,65.50
2018-10-18T20:13:39.760Z,68.50
2018-10-18T20:16:10.157Z,69.60
2018-10-18T20:18:41.215Z,70.40
2018-10-18T20:21:12.177Z,69.60
2018-10-18T20:23:42.219Z,67.70
2018-10-18T20:26:14.008Z,66.30
2018-10-18T20:28:43.019Z,66.10
2018-10-18T20:31:13.011Z,66.70
2018-10-18T20:33:42.274Z,67.80
2018-10-18T20:36:12.494Z,69.00
2018-10-18T20:38:43.944Z,68.20
2018-10-18T20:41:15.488Z,68.10
2018-10-18T20:43:45.007Z,68.30
2018-10-18T20:46:15.302Z,68.40
2018-10-18T20:48:44.813Z,65.60
2018-10-18T20:51:15.285Z,66.00
2018-10-18T20:53:45.048Z,68.90
2018-10-18T20:56:15.611Z,72.40
2018-10-18T20:58:44.975Z,74.50
2018-10-18T21:01:14.984Z,75.40
2018-10-18T21:03:44.704Z,77.80
2018-10-18T21:06:15.171Z,77.00
2018-10-18T21:08:46.342Z,74.30
2018-10-18T21:11:16.463Z,76.60
2018-10-18T21:13:46.592Z,75.50
2018-10-18T21:18:50.442Z,78.50
2018-10-18T21:21:19.670Z,77.80
2018-10-18T21:23:48.908Z,78.20
2018-10-18T21:26:18.154Z,77.40
2018-10-18T21:28:47.406Z,76.60
2018-10-18T21:31:18.082Z,74.10
2018-10-18T21:33:49.014Z,74.90
2018-10-18T21:36:19.225Z,69.70
2018-10-18T21:38:48.869Z,71.00
2018-10-18T21:41:18.679Z,74.00
2018-10-18T21:43:47.940Z,79.60
2018-10-18T21:46:17.391Z,79.70
2018-10-18T21:48:46.999Z,81.50
2018-10-18T21:51:17.602Z,78.60
2018-10-18T21:53:46.748Z,74.20
2018-10-18T21:56:16.595Z,75.10
2018-10-18T21:58:46.754Z,75.00
2018-10-18T22:01:16.771Z,80.30
2018-10-18T22:03:50.279Z,81.10
2018-10-18T22:06:20.140Z,82.50
2018-10-18T22:08:49.383Z,82.30
2018-10-18T22:11:18.604Z,82.50
2018-10-18T22:13:48.133Z,82.60
2018-10-18T22:16:18.090Z,81.80
2018-10-18T22:18:48.693Z,80.80
2018-10-18T22:21:19.565Z,82.60
2018-10-18T22:23:49.861Z,77.30
2018-10-18T22:26:19.309Z,82.40
2018-10-18T22:28:48.703Z,81.60
2018-10-18T22:31:20.009Z,83.30
2018-10-18T22:33:49.256Z,84.00
2018-10-18T22:36:21.837Z,84.00
2018-10-18T22:38:51.517Z,86.20
2018-10-18T22:41:21.320Z,84.80
2018-10-18T22:43:51.646Z,82.50
2018-10-18T22:46:21.862Z,83.90
2018-10-18T22:48:51.806Z,84.50
2018-10-18T22:51:21.026Z,82.40
2018-10-18T22:53:50.283Z,84.50
2018-10-18T22:56:20.032Z,84.80
2018-10-18T22:58:49.693Z,86.10
2018-10-18T23:01:19.835Z,87.30
2018-10-18T23:03:49.588Z,88.90
2018-10-18T23:06:19.561Z,88.30
2018-10-18T23:08:49.070Z,89.70
2018-10-18T23:11:18.958Z,90.50
2018-10-18T23:13:49.546Z,89.30
2018-10-18T23:16:21.651Z,90.40
2018-10-18T23:18:51.857Z,90.40
2018-10-18T23:21:21.093Z,88.90
2018-10-18T23:23:52.283Z,85.80
2018-10-18T23:26:22.476Z,83.70
2018-10-18T23:28:51.956Z,82.80
2018-10-18T23:31:21.214Z,80.60
2018-10-18T23:33:52.170Z,81.90
2018-10-18T23:36:24.838Z,82.70
2018-10-18T23:38:54.069Z,81.60
2018-10-18T23:41:24.214Z,81.60
2018-10-18T23:43:53.988Z,82.60
2018-10-18T23:46:23.442Z,82.90
2018-10-18T23:48:52.659Z,82.60
2018-10-18T23:51:22.198Z,79.90
2018-10-18T23:53:51.548Z,81.00
2018-10-18T23:56:23.675Z,79.70
2018-10-18T23:58:52.936Z,81.20
